createdAt,value
2024-02-06T00:00:18.703Z,60.26
2024-02-06T00:03:06.673Z,60.18
2024-02-06T00:05:35.026Z,60.11
2024-02-06T00:08:03.131Z,60.14
2024-02-06T00:10:31.234Z,60.04
2024-02-06T00:12:59.241Z,59.97
2024-02-06T00:15:27.187Z,60.11
2024-02-06T00:17:55.377Z,60.32
2024-02-06T00:20:23.864Z,60.44
2024-02-06T00:22:52.105Z,60.70
2024-02-06T00:25:20.016Z,60.80
2024-02-06T00:27:47.964Z,60.99
2024-02-06T00:30:16.420Z,60.90
2024-02-06T00:32:45.329Z,60.87
2024-02-06T00:35:13.639Z,60.65
2024-02-06T00:37:42.015Z,60.52
2024-02-06T00:40:11.149Z,60.43
2024-02-06T00:42:39.452Z,60.33
2024-02-06T00:45:08.035Z,60.21
2024-02-06T00:47:36.057Z,60.04
2024-02-06T00:50:04.830Z,59.83
2024-02-06T00:52:33.069Z,59.85
2024-02-06T00:55:01.211Z,59.69
2024-02-06T00:57:29.239Z,59.58
2024-02-06T00:59:57.387Z,59.42
2024-02-06T01:02:26.974Z,59.17
2024-02-06T01:04:55.226Z,59.09
2024-02-06T01:07:23.260Z,59.11
2024-02-06T01:09:51.697Z,58.99
2024-02-06T01:12:21.341Z,58.94
2024-02-06T01:14:49.573Z,58.67
2024-02-06T01:17:17.569Z,58.74
2024-02-06T01:19:45.699Z,58.77
2024-02-06T01:22:13.799Z,58.82
2024-02-06T01:24:41.710Z,58.98
2024-02-06T01:27:09.567Z,59.02
2024-02-06T01:29:38.556Z,59.19
2024-02-06T01:32:07.024Z,59.02
2024-02-06T01:34:35.215Z,58.79
2024-02-06T01:37:04.021Z,58.77
2024-02-06T01:39:32.618Z,58.49
2024-02-06T01:42:04.519Z,58.44
2024-02-06T01:44:32.841Z,58.29
2024-02-06T01:47:01.117Z,58.04
2024-02-06T01:49:29.705Z,58.00
2024-02-06T01:51:57.898Z,58.12
2024-02-06T01:54:25.815Z,57.90
2024-02-06T01:56:55.134Z,57.80
2024-02-06T01:59:23.206Z,57.95
2024-02-06T02:01:51.264Z,57.93
2024-02-06T02:04:19.672Z,57.95
2024-02-06T02:06:48.201Z,58.01
2024-02-06T02:09:16.434Z,58.16
2024-02-06T02:11:44.628Z,58.13
2024-02-06T02:14:12.639Z,58.17
2024-02-06T02:16:40.676Z,58.23
2024-02-06T02:19:08.884Z,58.27
2024-02-06T02:21:39.849Z,58.26
2024-02-06T02:24:08.505Z,58.42
2024-02-06T02:26:38.857Z,58.28
2024-02-06T02:29:07.056Z,58.54
2024-02-06T02:31:35.540Z,58.58
2024-02-06T02:34:03.805Z,58.49
2024-02-06T02:36:32.121Z,58.00
2024-02-06T02:39:00.096Z,57.86
2024-02-06T02:41:28.131Z,57.94
2024-02-06T02:43:56.399Z,57.49
2024-02-06T02:46:24.763Z,57.46
2024-02-06T02:48:53.025Z,57.42
2024-02-06T02:51:21.220Z,57.26
2024-02-06T02:53:49.249Z,56.99
2024-02-06T02:56:18.522Z,56.73
2024-02-06T02:58:47.883Z,56.73
2024-02-06T03:01:16.131Z,56.49
2024-02-06T03:03:44.627Z,56.06
2024-02-06T03:06:21.887Z,55.71
2024-02-06T03:08:50.076Z,55.52
2024-02-06T03:11:18.062Z,55.61
2024-02-06T03:13:46.178Z,55.88
2024-02-06T03:16:14.337Z,55.79
2024-02-06T03:18:42.475Z,55.08
2024-02-06T03:21:10.500Z,55.01
2024-02-06T03:23:38.732Z,54.96
2024-02-06T03:26:07.016Z,54.72
2024-02-06T03:28:35.223Z,55.05
2024-02-06T03:31:04.142Z,55.32
2024-02-06T03:33:34.651Z,55.26
2024-02-06T03:36:02.972Z,54.94
2024-02-06T03:38:31.085Z,54.45
2024-02-06T03:40:59.345Z,54.06
2024-02-06T03:43:27.361Z,54.26
2024-02-06T03:45:56.103Z,53.88
2024-02-06T03:48:24.536Z,53.68
2024-02-06T03:50:53.256Z,53.54
2024-02-06T03:53:21.286Z,54.01
2024-02-06T03:55:49.479Z,53.27
2024-02-06T03:58:17.677Z,53.06
2024-02-06T04:00:51.337Z,53.28
2024-02-06T04:03:19.976Z,53.06
2024-02-06T04:05:48.447Z,53.33
2024-02-06T04:08:16.666Z,53.41
2024-02-06T04:10:45.298Z,53.36
2024-02-06T04:13:14.334Z,53.64
2024-02-06T04:15:42.978Z,53.89
2024-02-06T04:18:11.522Z,53.94
2024-02-06T04:20:39.742Z,54.28
2024-02-06T04:23:07.758Z,54.36
2024-02-06T04:25:36.067Z,55.08
2024-02-06T04:28:05.714Z,55.91
2024-02-06T04:30:33.870Z,57.13
2024-02-06T04:33:02.124Z,57.80
2024-02-06T04:35:30.356Z,58.53
2024-02-06T04:37:58.796Z,59.27
2024-02-06T04:40:26.984Z,59.97
2024-02-06T04:42:55.179Z,60.17
2024-02-06T04:45:23.342Z,60.61
2024-02-06T04:47:52.291Z,60.83
2024-02-06T04:50:20.560Z,60.89
2024-02-06T04:52:48.636Z,61.11
2024-02-06T04:55:16.809Z,61.19
2024-02-06T04:57:44.746Z,61.32
2024-02-06T05:00:14.639Z,61.15
2024-02-06T05:02:43.039Z,60.99
2024-02-06T05:05:11.389Z,60.89
2024-02-06T05:07:40.055Z,60.85
2024-02-06T05:10:11.845Z,60.67
2024-02-06T05:12:40.134Z,60.59
2024-02-06T05:15:09.310Z,60.76
2024-02-06T05:17:37.573Z,60.75
2024-02-06T05:20:06.769Z,60.24
2024-02-06T05:22:34.966Z,60.02
2024-02-06T05:25:03.491Z,60.13
2024-02-06T05:27:31.640Z,59.50
2024-02-06T05:30:00.464Z,58.09
2024-02-06T05:32:28.899Z,57.97
2024-02-06T05:34:58.787Z,57.78
2024-02-06T05:37:27.720Z,57.55
2024-02-06T05:39:55.832Z,58.32
2024-02-06T05:42:24.038Z,57.73
2024-02-06T05:44:52.192Z,58.01
2024-02-06T05:47:20.375Z,57.55
2024-02-06T05:49:48.560Z,57.99
2024-02-06T05:52:16.692Z,58.25
2024-02-06T05:54:44.725Z,57.13
2024-02-06T05:57:14.003Z,57.03
2024-02-06T05:59:42.124Z,57.03
2024-02-06T06:02:10.292Z,56.13
2024-02-06T06:04:38.837Z,55.40
2024-02-06T06:07:08.105Z,54.94
2024-02-06T06:09:36.365Z,55.11
2024-02-06T06:12:05.229Z,54.95
2024-02-06T06:14:33.387Z,54.27
2024-02-06T06:17:01.332Z,53.71
2024-02-06T06:19:29.602Z,53.07
2024-02-06T06:21:57.893Z,53.25
2024-02-06T06:24:25.961Z,53.73
2024-02-06T06:26:54.405Z,52.55
2024-02-06T06:29:23.216Z,51.74
2024-02-06T06:31:52.192Z,51.82
2024-02-06T06:34:20.634Z,51.63
2024-02-06T06:36:49.286Z,51.79
2024-02-06T06:39:19.323Z,52.04
2024-02-06T06:41:49.236Z,52.42
2024-02-06T06:44:17.802Z,51.99
2024-02-06T06:46:48.159Z,51.56
2024-02-06T06:49:16.688Z,51.56
2024-02-06T06:51:45.042Z,52.15
2024-02-06T06:54:13.053Z,50.97
2024-02-06T06:56:41.189Z,51.22
2024-02-06T06:59:10.023Z,51.17
2024-02-06T07:01:38.432Z,51.48
2024-02-06T07:04:07.115Z,51.80
2024-02-06T07:06:38.830Z,50.56
2024-02-06T07:09:08.534Z,49.05
2024-02-06T07:11:37.028Z,48.45
2024-02-06T07:14:05.717Z,47.75
2024-02-06T07:16:34.003Z,47.68
2024-02-06T07:19:02.283Z,46.15
2024-02-06T07:21:30.757Z,46.83
2024-02-06T07:23:58.810Z,46.49
2024-02-06T07:26:27.142Z,44.06
2024-02-06T07:28:56.429Z,45.14
2024-02-06T07:31:25.238Z,46.70
2024-02-06T07:33:53.956Z,46.57
2024-02-06T07:36:22.351Z,45.38
2024-02-06T07:38:50.866Z,43.98
2024-02-06T07:41:19.192Z,44.97
2024-02-06T07:43:47.502Z,44.84
2024-02-06T07:46:15.841Z,43.24
2024-02-06T07:48:44.166Z,43.66
2024-02-06T07:51:12.420Z,43.87
2024-02-06T07:53:40.310Z,42.46
2024-02-06T07:56:08.369Z,42.34
2024-02-06T07:58:36.378Z,41.32
2024-02-06T08:01:04.822Z,39.16
2024-02-06T08:03:32.998Z,36.45
2024-02-06T08:06:02.160Z,38.37
2024-02-06T08:08:30.445Z,39.55
2024-02-06T08:10:58.990Z,38.72
2024-02-06T08:13:28.044Z,38.46
2024-02-06T08:15:56.605Z,38.78
2024-02-06T08:18:25.171Z,39.93
2024-02-06T08:20:53.486Z,39.79
2024-02-06T08:23:23.582Z,40.44
2024-02-06T08:25:52.392Z,39.04
2024-02-06T08:28:21.068Z,33.37
2024-02-06T08:30:50.893Z,31.80
2024-02-06T08:33:19.275Z,30.01
2024-02-06T08:35:52.767Z,29.94
2024-02-06T08:38:21.273Z,29.62
2024-02-06T08:40:49.769Z,29.47
2024-02-06T08:43:18.668Z,29.69
2024-02-06T08:45:47.345Z,30.08
2024-02-06T08:48:15.752Z,29.40
2024-02-06T08:50:44.898Z,28.36
2024-02-06T08:53:13.040Z,28.31
2024-02-06T08:55:41.331Z,28.13
2024-02-06T08:58:09.859Z,27.83
2024-02-06T09:00:38.131Z,28.45
2024-02-06T09:03:06.320Z,28.04
2024-02-06T09:05:34.954Z,26.49
2024-02-06T09:08:03.837Z,27.48
2024-02-06T09:10:32.901Z,25.84
2024-02-06T09:13:02.137Z,26.40
2024-02-06T09:15:31.684Z,25.41
2024-02-06T09:18:02.155Z,25.20
2024-02-06T09:20:31.810Z,24.99
2024-02-06T09:23:00.498Z,25.41
2024-02-06T09:25:29.235Z,24.67
2024-02-06T09:27:58.310Z,24.52
2024-02-06T09:30:26.561Z,24.34
2024-02-06T09:32:55.561Z,23.72
2024-02-06T09:35:23.912Z,23.50
2024-02-06T09:37:52.078Z,23.95
2024-02-06T09:40:20.254Z,23.74
2024-02-06T09:42:48.882Z,23.70
2024-02-06T09:45:16.946Z,24.27
2024-02-06T09:47:45.540Z,23.94
2024-02-06T09:50:14.032Z,23.66
2024-02-06T09:52:42.559Z,23.95
2024-02-06T09:55:13.126Z,23.74
2024-02-06T09:57:43.016Z,23.74
2024-02-06T10:00:11.746Z,23.77
2024-02-06T10:02:43.402Z,23.52
2024-02-06T10:05:17.391Z,24.10
2024-02-06T10:07:48.727Z,23.50
2024-02-06T10:10:17.801Z,23.82
2024-02-06T10:12:45.878Z,23.14
2024-02-06T10:15:19.094Z,22.86
2024-02-06T10:17:47.105Z,22.66
2024-02-06T10:20:15.696Z,22.89
2024-02-06T10:22:44.530Z,22.80
2024-02-06T10:25:15.037Z,22.84
2024-02-06T10:27:43.437Z,23.09
2024-02-06T10:30:12.207Z,22.84
2024-02-06T10:32:40.547Z,22.87
2024-02-06T10:35:09.574Z,21.97
2024-02-06T10:37:39.727Z,22.36
2024-02-06T10:40:11.380Z,22.44
2024-02-06T10:43:24.419Z,22.58
2024-02-06T10:45:28.929Z,22.56
2024-02-06T10:48:00.710Z,22.68
2024-02-06T10:50:29.827Z,22.77
2024-02-06T10:52:58.240Z,22.64
2024-02-06T10:55:26.739Z,22.65
2024-02-06T10:58:07.260Z,22.45
2024-02-06T11:00:38.153Z,22.48
2024-02-06T11:03:09.413Z,22.52
2024-02-06T11:05:45.527Z,22.70
2024-02-06T11:08:18.005Z,22.44
2024-02-06T11:10:57.445Z,22.63
2024-02-06T11:13:47.670Z,22.46
2024-02-06T11:16:19.260Z,22.42
2024-02-06T11:19:10.252Z,22.03
2024-02-06T11:21:42.144Z,22.29
2024-02-06T11:24:10.551Z,22.21
2024-02-06T11:26:43.350Z,22.17
2024-02-06T11:29:11.423Z,22.44
2024-02-06T11:31:40.176Z,22.69
2024-02-06T11:34:15.723Z,22.42
2024-02-06T11:36:44.187Z,22.03
2024-02-06T11:39:18.789Z,22.03
2024-02-06T11:41:49.267Z,22.32
2024-02-06T11:44:20.745Z,22.35
2024-02-06T11:46:50.659Z,21.63
2024-02-06T11:49:23.510Z,21.70
2024-02-06T11:51:58.162Z,21.05
2024-02-06T11:54:29.673Z,19.71
2024-02-06T11:56:59.965Z,18.63
2024-02-06T11:59:28.049Z,17.68
2024-02-06T12:01:56.988Z,17.26
2024-02-06T12:04:26.014Z,16.67
2024-02-06T12:07:05.420Z,15.87
2024-02-06T12:09:42.941Z,15.19
2024-02-06T12:12:12.484Z,15.35
2024-02-06T12:14:40.702Z,16.11
2024-02-06T12:17:08.752Z,16.67
2024-02-06T12:19:37.143Z,15.97
2024-02-06T12:22:14.069Z,15.76
2024-02-06T12:24:42.505Z,15.99
2024-02-06T12:27:11.188Z,15.72
2024-02-06T12:29:40.510Z,15.69
2024-02-06T12:32:09.449Z,15.77
2024-02-06T12:34:38.280Z,15.66
2024-02-06T12:37:07.268Z,14.99
2024-02-06T12:39:35.451Z,15.18
2024-02-06T12:42:06.927Z,14.28
2024-02-06T12:44:45.370Z,13.80
2024-02-06T12:47:18.111Z,13.90
2024-02-06T12:49:46.543Z,14.02
2024-02-06T12:52:20.530Z,13.74
2024-02-06T12:54:49.159Z,13.99
2024-02-06T12:57:17.781Z,14.32
2024-02-06T12:59:50.462Z,14.63
2024-02-06T13:02:18.761Z,14.58
2024-02-06T13:04:47.204Z,14.50
2024-02-06T13:07:25.448Z,14.80
2024-02-06T13:10:01.724Z,14.72
2024-02-06T13:12:29.931Z,14.30
2024-02-06T13:15:01.648Z,14.12
2024-02-06T13:17:30.928Z,14.52
2024-02-06T13:20:09.594Z,13.81
2024-02-06T13:22:39.696Z,13.25
2024-02-06T13:25:12.403Z,13.31
2024-02-06T13:27:40.687Z,13.22
2024-02-06T13:30:09.884Z,13.38
2024-02-06T13:32:38.023Z,13.23
2024-02-06T13:35:07.517Z,12.48
2024-02-06T13:37:37.200Z,12.36
2024-02-06T13:40:07.433Z,12.55
2024-02-06T13:42:35.823Z,13.50
2024-02-06T13:45:05.298Z,14.50
2024-02-06T13:47:34.946Z,15.35
2024-02-06T13:50:03.325Z,16.30
2024-02-06T13:52:31.800Z,16.96
2024-02-06T13:55:00.041Z,17.69
2024-02-06T13:57:28.518Z,18.30
2024-02-06T13:59:57.113Z,18.78
2024-02-06T14:02:25.480Z,19.12
2024-02-06T14:04:54.077Z,19.61
2024-02-06T14:07:24.573Z,20.15
2024-02-06T14:09:53.641Z,20.53
2024-02-06T14:12:26.559Z,20.87
2024-02-06T14:14:58.535Z,21.33
2024-02-06T14:17:28.593Z,21.79
2024-02-06T14:19:57.622Z,22.21
2024-02-06T14:22:25.831Z,22.58
2024-02-06T14:24:54.028Z,22.83
2024-02-06T14:27:23.158Z,23.14
2024-02-06T14:29:51.448Z,23.37
2024-02-06T14:32:19.521Z,23.50
2024-02-06T14:34:48.744Z,23.58
2024-02-06T14:37:18.026Z,22.96
2024-02-06T14:39:46.173Z,22.17
2024-02-06T14:42:14.353Z,21.89
2024-02-06T14:44:48.015Z,21.02
2024-02-06T14:47:20.324Z,21.17
2024-02-06T14:49:48.950Z,21.35
2024-02-06T14:52:17.362Z,21.55
2024-02-06T14:54:46.233Z,21.86
2024-02-06T14:57:14.384Z,22.17
2024-02-06T14:59:42.380Z,22.61
2024-02-06T15:02:10.592Z,23.05
2024-02-06T15:04:38.733Z,23.48
2024-02-06T15:07:07.565Z,23.83
2024-02-06T15:09:38.058Z,24.23
2024-02-06T15:12:06.737Z,24.70
2024-02-06T15:14:34.881Z,24.95
2024-02-06T15:17:04.488Z,25.26
2024-02-06T15:19:32.817Z,25.63
2024-02-06T15:22:01.719Z,26.03
2024-02-06T15:24:30.037Z,26.15
2024-02-06T15:27:03.106Z,26.61
2024-02-06T15:29:31.427Z,26.82
2024-02-06T15:32:00.060Z,27.32
2024-02-06T15:34:28.464Z,27.46
2024-02-06T15:36:58.299Z,27.85
2024-02-06T15:39:26.466Z,28.20
2024-02-06T15:41:54.670Z,28.57
2024-02-06T15:44:23.192Z,29.02
2024-02-06T15:46:55.322Z,29.49
2024-02-06T15:49:24.127Z,29.60
2024-02-06T15:51:52.532Z,30.13
2024-02-06T15:54:21.048Z,30.58
2024-02-06T15:56:49.607Z,30.74
2024-02-06T15:59:18.564Z,31.10
2024-02-06T16:01:48.767Z,31.45
2024-02-06T16:04:17.478Z,31.63
2024-02-06T16:06:46.103Z,31.74
2024-02-06T16:09:20.388Z,31.74
2024-02-06T16:11:52.855Z,31.98
2024-02-06T16:14:21.922Z,32.07
2024-02-06T16:16:53.237Z,32.03
2024-02-06T16:19:30.247Z,32.23
2024-02-06T16:22:02.141Z,32.23
2024-02-06T16:24:30.639Z,32.31
2024-02-06T16:27:00.241Z,32.56
2024-02-06T16:29:28.877Z,33.03
2024-02-06T16:31:57.675Z,33.56
2024-02-06T16:34:37.128Z,33.92
2024-02-06T16:37:08.265Z,34.27
2024-02-06T16:39:37.159Z,34.68
2024-02-06T16:42:06.938Z,34.96
2024-02-06T16:44:35.476Z,34.94
2024-02-06T16:47:04.196Z,35.13
2024-02-06T16:49:32.499Z,35.18
2024-02-06T16:52:00.926Z,35.39
2024-02-06T16:54:29.259Z,35.52
2024-02-06T16:56:57.833Z,35.82
2024-02-06T16:59:26.201Z,36.07
2024-02-06T17:01:54.861Z,36.20
2024-02-06T17:04:23.644Z,36.23
2024-02-06T17:06:52.278Z,36.43
2024-02-06T17:09:20.819Z,36.64
2024-02-06T17:11:49.512Z,36.97
2024-02-06T17:14:17.637Z,37.09
2024-02-06T17:16:46.477Z,37.36
2024-02-06T17:19:15.468Z,37.45
2024-02-06T17:21:46.570Z,37.69
2024-02-06T17:24:14.939Z,37.96
2024-02-06T17:26:43.422Z,38.17
2024-02-06T17:29:11.581Z,38.29
2024-02-06T17:31:39.740Z,38.57
2024-02-06T17:34:08.204Z,38.66
2024-02-06T17:36:40.109Z,38.70
2024-02-06T17:39:08.915Z,39.12
2024-02-06T17:41:37.452Z,39.49
2024-02-06T17:44:05.678Z,39.73
2024-02-06T17:46:34.213Z,39.81
2024-02-06T17:49:02.911Z,40.16
2024-02-06T17:51:32.318Z,40.41
2024-02-06T17:54:00.755Z,40.63
2024-02-06T17:56:29.566Z,40.99
2024-02-06T17:58:58.466Z,41.41
2024-02-06T18:01:26.976Z,41.94
2024-02-06T18:03:55.272Z,42.35
2024-02-06T18:06:23.452Z,42.82
2024-02-06T18:08:51.664Z,43.11
2024-02-06T18:11:20.728Z,43.29
2024-02-06T18:13:48.834Z,43.50
2024-02-06T18:16:17.062Z,43.78
2024-02-06T18:18:45.341Z,43.74
2024-02-06T18:21:13.636Z,43.55
2024-02-06T18:23:42.542Z,43.65
2024-02-06T18:26:11.002Z,43.49
2024-02-06T18:28:39.298Z,43.68
2024-02-06T18:31:08.334Z,43.69
2024-02-06T18:33:36.696Z,43.75
2024-02-06T18:36:10.038Z,43.71
2024-02-06T18:38:38.144Z,43.79
2024-02-06T18:41:07.056Z,43.74
2024-02-06T18:43:36.184Z,43.61
2024-02-06T18:46:04.803Z,43.41
2024-02-06T18:48:32.999Z,43.28
2024-02-06T18:51:01.334Z,43.45
2024-02-06T18:53:29.415Z,43.24
2024-02-06T18:55:57.583Z,43.12
2024-02-06T18:58:26.383Z,42.99
2024-02-06T19:00:54.464Z,43.05
2024-02-06T19:03:22.652Z,42.77
2024-02-06T19:05:51.080Z,42.63
2024-02-06T19:08:19.599Z,42.63
2024-02-06T19:10:48.308Z,42.52
2024-02-06T19:13:16.984Z,42.35
2024-02-06T19:15:45.359Z,42.06
2024-02-06T19:18:13.872Z,41.97
2024-02-06T19:20:42.197Z,41.83
2024-02-06T19:23:10.220Z,41.81
2024-02-06T19:25:38.209Z,41.55
2024-02-06T19:28:06.884Z,41.46
2024-02-06T19:30:36.571Z,41.11
2024-02-06T19:33:05.325Z,40.90
2024-02-06T19:35:35.449Z,40.80
2024-02-06T19:38:04.296Z,40.85
2024-02-06T19:40:32.386Z,40.80
2024-02-06T19:43:00.616Z,40.69
2024-02-06T19:45:28.951Z,40.64
2024-02-06T19:47:58.140Z,40.80
2024-02-06T19:50:27.008Z,40.79
2024-02-06T19:52:55.794Z,40.87
2024-02-06T19:55:24.326Z,40.94
2024-02-06T19:57:52.623Z,41.10
2024-02-06T20:00:20.760Z,41.06
2024-02-06T20:02:49.425Z,41.16
2024-02-06T20:05:18.626Z,41.34
2024-02-06T20:07:46.998Z,41.43
2024-02-06T20:10:16.520Z,41.39
2024-02-06T20:12:44.760Z,41.57
2024-02-06T20:15:13.060Z,41.66
2024-02-06T20:17:41.302Z,42.04
2024-02-06T20:20:10.475Z,42.32
2024-02-06T20:22:38.870Z,42.95
2024-02-06T20:25:07.863Z,43.22
2024-02-06T20:27:36.549Z,43.48
2024-02-06T20:30:06.946Z,43.75
2024-02-06T20:32:35.102Z,43.79
2024-02-06T20:35:03.847Z,44.05
2024-02-06T20:37:32.042Z,44.32
2024-02-06T20:40:00.227Z,44.64
2024-02-06T20:42:28.967Z,45.26
2024-02-06T20:44:57.263Z,45.60
2024-02-06T20:47:25.448Z,45.90
2024-02-06T20:49:53.757Z,46.07
2024-02-06T20:52:22.053Z,46.37
2024-02-06T20:54:50.274Z,46.56
2024-02-06T20:57:18.551Z,46.65
2024-02-06T20:59:47.465Z,46.79
2024-02-06T21:02:15.613Z,47.31
2024-02-06T21:04:44.520Z,47.62
2024-02-06T21:07:12.882Z,47.74
2024-02-06T21:09:41.448Z,48.03
2024-02-06T21:12:09.569Z,48.32
2024-02-06T21:14:38.970Z,48.57
2024-02-06T21:17:07.299Z,48.80
2024-02-06T21:19:35.688Z,48.77
2024-02-06T21:22:04.261Z,49.13
2024-02-06T21:24:32.956Z,49.13
2024-02-06T21:27:01.027Z,49.31
2024-02-06T21:29:29.040Z,49.43
2024-02-06T21:31:58.113Z,49.53
2024-02-06T21:34:26.931Z,49.44
2024-02-06T21:36:57.655Z,49.40
2024-02-06T21:39:26.412Z,49.51
2024-02-06T21:41:54.396Z,49.63
2024-02-06T21:44:23.359Z,49.90
2024-02-06T21:46:51.718Z,50.04
2024-02-06T21:49:20.058Z,49.90
2024-02-06T21:51:48.284Z,49.98
2024-02-06T21:54:16.315Z,50.06
2024-02-06T21:56:44.439Z,50.24
2024-02-06T21:59:13.447Z,50.20
2024-02-06T22:01:47.089Z,50.18
2024-02-06T22:04:15.871Z,49.91
2024-02-06T22:06:44.281Z,49.50
2024-02-06T22:09:13.078Z,49.73
2024-02-06T22:11:41.470Z,49.86
2024-02-06T22:14:10.314Z,50.28
2024-02-06T22:16:39.171Z,50.30
2024-02-06T22:19:07.283Z,50.54
2024-02-06T22:21:35.350Z,50.68
2024-02-06T22:24:03.677Z,51.05
2024-02-06T22:26:32.010Z,51.18
2024-02-06T22:29:00.231Z,51.29
2024-02-06T22:31:28.674Z,51.69
2024-02-06T22:33:57.414Z,51.78
2024-02-06T22:36:25.788Z,51.91
2024-02-06T22:38:53.802Z,51.92
2024-02-06T22:41:21.750Z,52.16
2024-02-06T22:43:50.025Z,52.09
2024-02-06T22:46:18.176Z,52.32
2024-02-06T22:48:46.064Z,52.49
2024-02-06T22:51:14.414Z,53.36
2024-02-06T22:53:42.578Z,54.05
2024-02-06T22:56:10.871Z,54.01
2024-02-06T22:58:39.071Z,54.05
2024-02-06T23:01:07.231Z,54.76
2024-02-06T23:03:35.586Z,54.39
2024-02-06T23:06:04.400Z,54.69
2024-02-06T23:08:32.628Z,55.08
2024-02-06T23:11:01.027Z,55.43
2024-02-06T23:13:29.564Z,55.51
2024-02-06T23:15:57.813Z,55.62
2024-02-06T23:18:26.323Z,55.94
2024-02-06T23:20:54.602Z,56.41
2024-02-06T23:23:23.415Z,56.71
2024-02-06T23:25:51.610Z,56.91
2024-02-06T23:28:19.946Z,57.01
2024-02-06T23:30:48.717Z,56.72
2024-02-06T23:33:16.972Z,56.38
2024-02-06T23:35:45.153Z,57.21
2024-02-06T23:38:13.445Z,57.60
2024-02-06T23:40:41.350Z,58.80
2024-02-06T23:43:10.011Z,58.32
2024-02-06T23:45:38.100Z,57.75
2024-02-06T23:48:08.752Z,57.51
2024-02-06T23:50:37.897Z,57.25
2024-02-06T23:53:06.333Z,58.85
2024-02-06T23:55:34.399Z,59.88
2024-02-06T23:58:02.585Z,60.67
